Time;durP1;ratioP1;P1;durP2;ratioP2;P2;SDS_P1;SDS_P2;PMS_P1;PMS_P2;Temp;Humidity;BMP_temperature;BMP_pressure;BME280_temperature;BME280_humidity;BME280_pressure;Samples;Min_cycle;Max_cycle;Signal;HPM_P1;HPM_P2
2021/04/30 00:00:11;;;;;;;22.90;12.13;;;;;;;10.52;77.12;97215.26;1719424;83;21490;-76
2021/04/30 00:02:41;;;;;;;19.77;12.93;;;;;;;10.55;78.57;97223.54;1719034;83;21095;-76
2021/04/30 00:05:11;;;;;;;21.10;12.82;;;;;;;10.58;77.12;97217.25;1719274;83;21134;-76
2021/04/30 00:07:39;;;;;;;18.37;11.83;;;;;;;10.62;77.42;97217.48;1719261;83;21139;-76
2021/04/30 00:10:08;;;;;;;22.50;11.88;;;;;;;10.66;77.98;97213.34;1719239;83;21131;-76
2021/04/30 00:12:35;;;;;;;22.85;12.20;;;;;;;10.64;77.95;97212.55;1719259;83;21142;-76
2021/04/30 00:15:04;;;;;;;21.68;12.18;;;;;;;10.73;77.67;97205.98;1719294;83;21180;-76
2021/04/30 00:17:32;;;;;;;19.65;12.15;;;;;;;10.79;77.58;97206.17;1719326;83;21465;-76
2021/04/30 00:19:59;;;;;;;21.37;12.90;;;;;;;10.85;77.57;97215.20;1719433;83;21505;-76
2021/04/30 00:22:27;;;;;;;22.25;13.05;;;;;;;10.90;77.45;97221.16;1719279;83;21138;-76
2021/04/30 00:24:55;;;;;;;20.35;12.10;;;;;;;10.93;77.29;97224.15;1719276;83;21123;-76
2021/04/30 00:27:22;;;;;;;23.22;11.70;;;;;;;10.95;77.24;97216.97;1719392;83;21143;-77
2021/04/30 00:29:50;;;;;;;17.60;10.60;;;;;;;10.94;77.32;97217.45;1719348;83;21155;-76
2021/04/30 00:32:18;;;;;;;18.52;11.43;;;;;;;10.98;77.05;97219.95;1719133;82;21512;-76
2021/04/30 00:34:46;;;;;;;15.83;11.33;;;;;;;10.99;77.07;97219.02;1719370;83;21541;-76
2021/04/30 00:37:14;;;;;;;15.88;10.65;;;;;;;10.92;77.08;97218.45;1719148;83;21131;-77
2021/04/30 00:39:41;;;;;;;16.93;9.38;;;;;;;10.92;76.72;97215.31;1719346;83;21156;-78
2021/04/30 00:42:09;;;;;;;16.60;10.30;;;;;;;10.92;76.54;97212.67;1719333;83;21493;-78
2021/04/30 00:44:39;;;;;;;18.40;10.68;;;;;;;10.91;76.02;97213.60;1718991;83;21172;-77
2021/04/30 00:47:30;;;;;;;16.50;10.13;;;;;;;10.90;75.77;97209.23;1719354;83;21116;-75
2021/04/30 00:50:05;;;;;;;13.60;9.23;;;;;;;10.89;75.63;97211.95;1719445;83;21151;-76
2021/04/30 00:52:32;;;;;;;15.13;8.83;;;;;;;10.87;75.89;97212.49;1719267;83;21147;-76
2021/04/30 00:55:01;;;;;;;13.08;8.58;;;;;;;10.86;75.78;97224.00;1719365;83;21151;-76
2021/04/30 00:57:29;;;;;;;16.10;9.13;;;;;;;10.82;76.51;97221.50;1719730;83;21167;-76
2021/04/30 00:59:59;;;;;;;12.68;8.50;;;;;;;10.77;75.88;97210.69;1719212;83;21517;-76
2021/04/30 01:02:27;;;;;;;17.05;9.35;;;;;;;10.71;76.92;97221.08;1719250;83;21163;-76
2021/04/30 01:04:54;;;;;;;16.00;10.10;;;;;;;10.69;75.92;97218.97;1719283;83;21151;-76
2021/04/30 01:07:22;;;;;;;14.07;8.55;;;;;;;10.64;77.12;97223.16;1719136;83;21111;-76
2021/04/30 01:09:50;;;;;;;13.30;8.80;;;;;;;10.64;75.87;97220.50;1719518;83;21135;-78
2021/04/30 01:12:17;;;;;;;16.15;8.95;;;;;;;10.65;75.87;97216.92;1719258;83;21166;-78
2021/04/30 01:14:45;;;;;;;16.42;9.05;;;;;;;10.68;75.63;97222.55;1719434;83;21138;-78
2021/04/30 01:17:12;;;;;;;15.53;8.43;;;;;;;10.67;76.19;97225.66;1719304;83;21101;-78
2021/04/30 01:19:40;;;;;;;12.70;8.68;;;;;;;10.68;76.07;97226.53;1719131;83;21131;-77
2021/04/30 01:22:08;;;;;;;14.60;9.08;;;;;;;10.67;75.75;97219.52;1719340;83;21509;-77
2021/04/30 01:24:36;;;;;;;18.12;9.98;;;;;;;10.61;76.08;97224.59;1719320;83;21119;-78
2021/04/30 01:27:04;;;;;;;14.38;9.25;;;;;;;10.55;76.00;97212.94;1719144;83;21143;-78
2021/04/30 01:29:32;;;;;;;14.40;9.40;;;;;;;10.49;76.35;97216.70;1719243;83;21127;-78
2021/04/30 01:31:59;;;;;;;14.90;10.23;;;;;;;10.43;76.33;97217.80;1719286;83;21151;-76
2021/04/30 01:34:27;;;;;;;20.43;10.13;;;;;;;10.41;76.00;97218.31;1724763;83;21142;-77
2021/04/30 01:36:55;;;;;;;15.70;9.60;;;;;;;10.40;75.93;97211.75;1724888;83;21170;-76
2021/04/30 01:39:22;;;;;;;14.75;8.83;;;;;;;10.36;75.98;97224.72;1724890;83;21138;-76
2021/04/30 01:41:50;;;;;;;14.33;9.45;;;;;;;10.32;76.07;97221.34;1724726;83;21155;-76
2021/04/30 01:44:17;;;;;;;14.23;8.93;;;;;;;10.29;76.05;97214.83;1725059;83;21107;-76
2021/04/30 01:46:45;;;;;;;14.98;9.00;;;;;;;10.28;76.48;97222.38;1724871;83;21127;-77
2021/04/30 01:49:12;;;;;;;14.75;8.28;;;;;;;10.30;76.05;97217.91;1724750;83;21170;-77
2021/04/30 01:51:40;;;;;;;13.90;8.75;;;;;;;10.28;76.48;97213.98;1724870;83;21155;-77
2021/04/30 01:54:07;;;;;;;16.55;8.55;;;;;;;10.29;76.69;97213.51;1725222;83;21138;-77
2021/04/30 01:56:35;;;;;;;14.07;9.40;;;;;;;10.29;76.63;97204.23;1725015;83;21150;-77
2021/04/30 01:59:03;;;;;;;14.87;9.50;;;;;;;10.30;76.91;97198.88;1725036;83;21146;-77
2021/04/30 02:01:30;;;;;;;14.63;8.60;;;;;;;10.33;76.51;97200.55;1725088;83;21182;-77
2021/04/30 02:03:59;;;;;;;14.35;8.60;;;;;;;10.34;76.73;97200.09;1725118;83;21177;-77
2021/04/30 02:06:27;;;;;;;13.72;8.90;;;;;;;10.35;76.64;97200.48;1725017;83;21195;-77
2021/04/30 02:08:55;;;;;;;14.80;8.85;;;;;;;10.35;76.58;97194.73;1724989;83;21154;-77
2021/04/30 02:11:23;;;;;;;13.28;8.98;;;;;;;10.35;77.08;97193.86;1725122;83;21474;-77
2021/04/30 02:13:51;;;;;;;15.95;8.90;;;;;;;10.33;76.51;97191.75;1725089;83;21126;-77
2021/04/30 02:16:19;;;;;;;16.82;8.40;;;;;;;10.34;76.48;97182.88;1724992;83;21138;-76
2021/04/30 02:18:47;;;;;;;17.55;8.03;;;;;;;10.33;76.50;97178.03;1725009;83;21162;-76
2021/04/30 02:21:14;;;;;;;18.35;8.85;;;;;;;10.31;76.69;97181.22;1725020;83;21122;-77
2021/04/30 02:23:42;;;;;;;11.83;8.03;;;;;;;10.29;76.94;97184.38;1725016;83;21167;-76
2021/04/30 02:26:09;;;;;;;15.58;8.53;;;;;;;10.29;77.27;97189.22;1725056;83;21505;-76
2021/04/30 02:28:37;;;;;;;10.90;7.12;;;;;;;10.33;77.13;97188.63;1724979;83;21111;-77
2021/04/30 02:31:04;;;;;;;12.98;7.95;;;;;;;10.36;77.38;97187.63;1724851;83;21151;-77
2021/04/30 02:33:34;;;;;;;12.63;7.72;;;;;;;10.37;77.64;97190.23;1724959;83;21162;-77
2021/04/30 02:36:02;;;;;;;12.25;7.75;;;;;;;10.42;77.85;97202.81;1724998;83;21150;-77
2021/04/30 02:38:31;;;;;;;12.82;8.13;;;;;;;10.43;78.13;97205.01;1724864;83;21131;-78
2021/04/30 02:40:58;;;;;;;11.80;7.25;;;;;;;10.47;77.77;97200.02;1725099;83;21529;-78
2021/04/30 02:43:26;;;;;;;15.30;7.70;;;;;;;10.50;77.70;97204.33;1724837;83;21518;-77
2021/04/30 02:45:53;;;;;;;12.70;8.40;;;;;;;10.51;77.71;97200.27;1725007;83;21143;-77
2021/04/30 02:51:08;;;;;;;12.37;7.85;;;;;;;10.59;77.28;97203.06;1820844;78;22578;-78
2021/04/30 02:53:36;;;;;;;12.60;8.15;;;;;;;10.50;76.89;97209.63;1794333;80;21492;-79
2021/04/30 02:56:04;;;;;;;17.00;10.20;;;;;;;10.47;77.15;97212.39;1794422;80;21167;-78
2021/04/30 02:58:32;;;;;;;12.85;7.50;;;;;;;10.49;76.69;97211.85;1794237;80;21493;-78
2021/04/30 03:01:00;;;;;;;11.83;7.55;;;;;;;10.46;77.04;97215.48;1763845;80;21134;-77
2021/04/30 03:03:27;;;;;;;13.83;8.63;;;;;;;10.42;76.62;97211.20;1794301;80;21142;-77
2021/04/30 03:05:55;;;;;;;14.93;8.58;;;;;;;10.39;76.55;97213.52;1794158;80;21138;-79
2021/04/30 03:08:22;;;;;;;11.57;7.75;;;;;;;10.37;76.87;97223.33;1794355;80;21500;-78
2021/04/30 03:10:49;;;;;;;13.05;8.33;;;;;;;10.35;76.78;97233.14;1794312;80;21117;-78
2021/04/30 03:13:17;;;;;;;12.28;8.28;;;;;;;10.36;77.10;97235.31;1794136;80;21135;-77
2021/04/30 03:15:45;;;;;;;13.85;8.03;;;;;;;10.34;77.39;97237.17;1794315;80;21119;-78
2021/04/30 03:18:13;;;;;;;15.70;8.50;;;;;;;10.34;76.94;97239.82;1794299;80;21458;-79
2021/04/30 03:20:41;;;;;;;15.13;7.97;;;;;;;10.30;77.27;97239.94;1794227;80;21485;-82
2021/04/30 03:23:08;;;;;;;12.63;7.60;;;;;;;10.29;76.84;97242.19;1794214;80;21138;-79
2021/04/30 03:25:36;;;;;;;14.03;7.55;;;;;;;10.25;78.82;97245.88;1794188;80;21111;-79
2021/04/30 03:28:03;;;;;;;18.30;7.30;;;;;;;10.24;78.39;97249.45;1794219;80;21289;-79
2021/04/30 03:30:31;;;;;;;13.40;7.75;;;;;;;10.21;78.78;97259.32;1794196;80;21256;-78
2021/04/30 03:32:58;;;;;;;12.65;6.33;;;;;;;10.20;78.63;97268.16;1794112;80;21505;-78
2021/04/30 03:35:25;;;;;;;12.65;7.55;;;;;;;10.15;80.09;97278.95;1794344;80;21149;-78
2021/04/30 03:37:53;;;;;;;9.75;6.53;;;;;;;10.07;80.19;97273.08;1794225;80;21133;-78
2021/04/30 03:40:21;;;;;;;11.18;6.90;;;;;;;10.04;80.82;97281.56;1794109;80;21127;-78
2021/04/30 03:42:49;;;;;;;11.80;6.25;;;;;;;10.01;81.86;97294.06;1794238;80;21130;-78
2021/04/30 03:45:16;;;;;;;13.50;6.70;;;;;;;9.98;82.00;97300.78;1794269;80;21138;-78
2021/04/30 03:47:44;;;;;;;11.05;5.80;;;;;;;9.99;81.97;97315.30;1794099;80;21289;-78
2021/04/30 03:50:11;;;;;;;10.08;6.47;;;;;;;9.96;83.14;97303.48;1789952;80;21509;-78
2021/04/30 03:52:39;;;;;;;10.63;5.90;;;;;;;10.02;81.92;97305.05;1786517;80;21671;-78
2021/04/30 03:55:08;;;;;;;9.38;6.00;;;;;;;10.04;83.39;97300.55;1786402;80;21150;-79
2021/04/30 03:57:35;;;;;;;13.40;6.40;;;;;;;10.07;84.27;97299.56;1786642;80;21272;-78
2021/04/30 04:00:05;;;;;;;8.73;6.22;;;;;;;10.11;82.88;97302.50;1786533;80;21138;-78
2021/04/30 04:02:35;;;;;;;10.10;5.95;;;;;;;10.19;82.60;97296.89;1785046;80;21111;-79
2021/04/30 04:05:03;;;;;;;11.40;6.97;;;;;;;10.24;82.53;97283.89;1785822;80;21167;-78
2021/04/30 04:07:30;;;;;;;9.83;6.08;;;;;;;10.30;82.48;97262.45;1785836;80;21474;-78
2021/04/30 04:09:58;;;;;;;9.20;6.20;;;;;;;10.38;82.33;97251.54;1785914;80;21131;-79
2021/04/30 04:12:26;;;;;;;10.85;6.08;;;;;;;10.45;83.93;97271.17;1786163;80;21147;-79
2021/04/30 04:14:54;;;;;;;10.48;6.20;;;;;;;10.45;83.46;97273.83;1785860;80;21146;-78
2021/04/30 04:17:21;;;;;;;10.30;6.50;;;;;;;10.51;85.00;97263.84;1785887;80;21151;-77
2021/04/30 04:19:51;;;;;;;8.75;5.55;;;;;;;10.61;84.05;97258.17;1785202;80;21127;-78
2021/04/30 04:22:20;;;;;;;11.38;6.17;;;;;;;10.69;83.08;97275.50;1785788;80;21490;-78
2021/04/30 04:24:48;;;;;;;18.45;11.90;;;;;;;10.74;85.17;97288.98;1785925;80;21136;-78
2021/04/30 04:27:16;;;;;;;26.62;15.90;;;;;;;10.76;86.85;97296.43;1785835;80;21119;-78
2021/04/30 04:29:44;;;;;;;25.62;15.83;;;;;;;10.78;85.87;97307.82;1785688;80;21178;-78
2021/04/30 04:32:12;;;;;;;21.85;17.40;;;;;;;10.78;84.82;97295.44;1785859;80;21167;-79
2021/04/30 04:34:39;;;;;;;24.12;16.87;;;;;;;10.80;84.79;97304.18;1785951;80;21134;-79
2021/04/30 04:37:07;;;;;;;28.38;17.42;;;;;;;10.81;84.51;97299.27;1785719;80;21123;-75
2021/04/30 04:39:35;;;;;;;25.90;18.30;;;;;;;10.83;84.36;97309.36;1785915;80;21146;-75
2021/04/30 04:42:04;;;;;;;20.25;12.82;;;;;;;10.88;85.25;97316.27;1757863;80;21155;-75
2021/04/30 04:44:33;;;;;;;23.30;15.88;;;;;;;10.91;83.79;97316.99;1785796;80;21485;-75
2021/04/30 04:47:02;;;;;;;21.27;14.33;;;;;;;10.98;86.55;97321.58;1785937;80;21138;-75
2021/04/30 04:49:29;;;;;;;19.27;14.50;;;;;;;11.00;85.37;97325.50;1785118;80;21462;-75
2021/04/30 04:51:57;;;;;;;20.95;13.88;;;;;;;11.04;84.44;97321.31;1780053;81;21107;-75
2021/04/30 04:54:27;;;;;;;15.53;11.40;;;;;;;11.10;84.12;97318.87;1780024;81;21096;-75
2021/04/30 04:56:56;;;;;;;13.10;8.05;;;;;;;11.14;84.47;97321.80;1779898;80;21156;-75
2021/04/30 04:59:24;;;;;;;12.68;8.93;;;;;;;11.18;84.84;97321.19;1780241;81;21515;-75
2021/04/30 05:01:51;;;;;;;15.65;9.83;;;;;;;11.22;85.24;97326.77;1758454;81;21136;-76
2021/04/30 05:04:20;;;;;;;11.68;7.90;;;;;;;11.24;84.28;97339.48;1779918;81;21131;-76
2021/04/30 05:06:48;;;;;;;14.38;7.47;;;;;;;11.28;85.07;97339.76;1780210;81;21147;-76
2021/04/30 05:09:15;;;;;;;14.83;7.37;;;;;;;11.37;85.05;97343.80;1780182;81;21116;-76
2021/04/30 05:11:43;;;;;;;9.83;6.78;;;;;;;11.41;85.25;97347.20;1779900;81;21138;-76
2021/04/30 05:14:10;;;;;;;12.93;6.70;;;;;;;11.47;84.84;97343.79;1779888;81;21565;-75
2021/04/30 05:16:38;;;;;;;7.15;5.35;;;;;;;11.56;84.58;97342.55;1780096;81;21494;-76
2021/04/30 05:19:06;;;;;;;7.85;5.53;;;;;;;11.62;85.28;97340.94;1779859;81;21482;-76
2021/04/30 05:21:35;;;;;;;10.65;5.67;;;;;;;11.75;85.46;97337.72;1780102;81;21806;-75
2021/04/30 05:24:03;;;;;;;10.80;6.42;;;;;;;11.91;85.18;97349.84;1780292;81;21158;-75
2021/04/30 05:26:31;;;;;;;11.38;6.42;;;;;;;12.03;86.04;97361.70;1780101;81;21138;-76
2021/04/30 05:28:59;;;;;;;10.48;6.87;;;;;;;12.13;84.13;97357.72;1779968;81;21127;-75
2021/04/30 05:31:26;;;;;;;11.15;6.47;;;;;;;12.23;84.15;97359.49;1779994;81;21135;-75
2021/04/30 05:33:54;;;;;;;17.42;10.13;;;;;;;12.35;83.43;97350.55;1779882;81;21139;-76
2021/04/30 05:36:21;;;;;;;9.80;6.40;;;;;;;12.45;83.12;97361.61;1780180;80;21134;-75
2021/04/30 05:38:50;;;;;;;10.20;7.37;;;;;;;12.54;82.98;97371.33;1758174;81;21135;-76
2021/04/30 05:41:18;;;;;;;10.13;5.97;;;;;;;12.67;82.36;97369.42;1779993;81;21517;-76
2021/04/30 05:43:45;;;;;;;8.70;6.78;;;;;;;12.74;81.63;97365.52;1780001;81;21489;-76
2021/04/30 05:46:17;;;;;;;11.85;7.33;;;;;;;12.83;81.78;97366.86;1779944;81;21143;-76
2021/04/30 05:48:44;;;;;;;10.15;6.47;;;;;;;12.92;81.45;97370.39;1779650;81;21500;-76
2021/04/30 05:51:12;;;;;;;9.20;5.25;;;;;;;13.01;81.57;97377.08;1784225;80;21544;-77
2021/04/30 05:53:39;;;;;;;9.38;5.87;;;;;;;13.10;80.94;97375.75;1785707;80;21498;-77
2021/04/30 05:56:08;;;;;;;9.35;6.10;;;;;;;13.19;80.97;97383.73;1781708;80;21462;-77
2021/04/30 05:58:36;;;;;;;10.48;6.58;;;;;;;13.27;80.74;97385.55;1785754;80;21131;-77
2021/04/30 06:01:03;;;;;;;9.35;5.50;;;;;;;13.37;80.96;97379.28;1785619;80;21170;-76
2021/04/30 06:03:30;;;;;;;10.65;5.75;;;;;;;13.48;80.77;97380.55;1785839;80;21513;-76
2021/04/30 06:06:00;;;;;;;7.97;5.95;;;;;;;13.57;80.65;97387.61;1785886;80;21123;-77
2021/04/30 06:08:28;;;;;;;7.72;5.33;;;;;;;13.61;80.12;97385.65;1785718;80;21110;-76
2021/04/30 06:10:57;;;;;;;11.03;6.75;;;;;;;13.66;80.60;97383.61;1785689;80;21168;-76
2021/04/30 06:13:25;;;;;;;10.60;6.85;;;;;;;13.71;80.21;97382.89;1786122;80;21138;-76
2021/04/30 06:15:52;;;;;;;11.12;7.25;;;;;;;13.75;79.69;97376.09;1785712;80;21123;-76
2021/04/30 06:18:20;;;;;;;10.58;6.90;;;;;;;13.76;79.67;97370.69;1785857;80;21151;-76
2021/04/30 06:20:48;;;;;;;9.33;7.17;;;;;;;13.79;80.20;97375.83;1785782;80;21112;-76
2021/04/30 06:23:15;;;;;;;8.18;6.80;;;;;;;13.73;80.33;97377.03;1785790;80;21130;-76
2021/04/30 06:25:43;;;;;;;10.43;7.70;;;;;;;13.72;79.87;97381.10;1785787;80;21140;-76
2021/04/30 06:28:11;;;;;;;12.00;6.80;;;;;;;13.72;79.65;97380.64;1785522;80;21384;-76
2021/04/30 06:30:39;;;;;;;9.43;6.67;;;;;;;13.71;80.28;97382.89;1785761;80;21494;-76
2021/04/30 06:33:10;;;;;;;10.58;7.08;;;;;;;13.66;81.51;97389.42;1785814;80;21516;-76
2021/04/30 06:35:38;;;;;;;20.08;14.18;;;;;;;13.63;80.59;97386.91;1785698;80;21493;-79
2021/04/30 06:38:05;;;;;;;9.33;7.35;;;;;;;13.65;80.03;97388.55;1785834;80;21470;-80
2021/04/30 06:40:33;;;;;;;15.72;7.92;;;;;;;13.63;79.94;97392.23;1785934;80;21130;-79
2021/04/30 06:43:03;;;;;;;11.50;7.05;;;;;;;13.62;79.96;97386.03;1785701;80;21131;-79
2021/04/30 06:45:32;;;;;;;11.30;7.28;;;;;;;13.64;80.01;97394.82;1785723;80;21099;-78
2021/04/30 06:47:59;;;;;;;10.85;7.45;;;;;;;13.64;79.79;97392.16;1785872;80;21107;-79
2021/04/30 06:50:27;;;;;;;9.48;8.05;;;;;;;13.67;80.31;97393.80;1784051;80;21134;-77
2021/04/30 06:52:55;;;;;;;12.93;7.95;;;;;;;13.69;80.35;97396.77;1779912;81;21142;-78
2021/04/30 06:55:22;;;;;;;13.18;8.15;;;;;;;13.73;80.38;97400.13;1779990;81;21134;-80
2021/04/30 06:57:50;;;;;;;10.78;8.05;;;;;;;13.80;80.31;97396.22;1774400;81;21485;-80
2021/04/30 07:00:18;;;;;;;17.50;8.08;;;;;;;13.84;80.14;97397.75;1767327;81;21190;-81
2021/04/30 07:02:46;;;;;;;11.00;9.00;;;;;;;13.93;80.11;97405.75;1779687;80;21151;-86
2021/04/30 07:05:14;;;;;;;13.22;8.65;;;;;;;14.07;79.80;97417.00;1757659;81;21194;-83
2021/04/30 07:07:42;;;;;;;12.23;8.75;;;;;;;14.21;79.98;97420.25;1779783;80;21546;-82
2021/04/30 07:10:10;;;;;;;12.45;8.88;;;;;;;14.32;79.71;97426.34;1770832;80;21184;-82
2021/04/30 07:12:39;;;;;;;14.58;10.13;;;;;;;14.39;79.65;97433.54;1771390;80;21549;-84
2021/04/30 07:15:08;;;;;;;14.55;9.75;;;;;;;14.46;79.59;97443.40;1789295;79;21139;-84
2021/04/30 07:17:36;;;;;;;15.55;9.50;;;;;;;14.45;79.53;97436.35;1778739;80;21521;-84
2021/04/30 07:20:06;;;;;;;14.38;8.83;;;;;;;14.46;79.59;97438.06;1778833;81;21159;-83
2021/04/30 07:22:33;;;;;;;12.65;9.15;;;;;;;14.51;79.60;97444.01;1778837;80;21104;-84
2021/04/30 07:25:01;;;;;;;13.58;8.48;;;;;;;14.57;79.30;97441.48;1778798;80;21116;-83
2021/04/30 07:27:29;;;;;;;12.30;9.08;;;;;;;14.68;79.32;97431.54;1774041;80;21146;-84
2021/04/30 07:29:58;;;;;;;14.60;9.58;;;;;;;14.78;78.56;97416.77;1748163;82;21548;-85
2021/04/30 07:32:26;;;;;;;12.40;9.55;;;;;;;14.90;78.74;97420.56;1748278;82;21118;-83
2021/04/30 07:34:54;;;;;;;13.95;10.35;;;;;;;15.01;78.54;97417.30;1748524;82;21181;-81
2021/04/30 07:37:21;;;;;;;15.05;10.53;;;;;;;15.10;78.34;97414.56;1748353;82;21516;-81
2021/04/30 07:39:49;;;;;;;14.58;10.53;;;;;;;15.17;78.05;97418.13;1748222;82;21142;-80
2021/04/30 07:42:16;;;;;;;17.32;11.28;;;;;;;15.22;77.90;97415.66;1748204;82;21488;-80
2021/04/30 07:44:43;;;;;;;18.50;10.82;;;;;;;15.27;77.76;97430.94;1748351;82;21138;-80
2021/04/30 07:47:13;;;;;;;17.10;12.75;;;;;;;15.29;77.31;97429.06;1776338;79;21111;-79
2021/04/30 07:49:45;;;;;;;20.52;13.05;;;;;;;15.22;77.01;97429.88;1785152;79;21092;-81
2021/04/30 07:52:13;;;;;;;17.80;14.45;;;;;;;15.17;77.22;97431.95;1811096;79;21135;-80
2021/04/30 07:54:40;;;;;;;24.47;18.30;;;;;;;15.18;77.45;97430.55;1749946;82;21142;-80
2021/04/30 07:57:08;;;;;;;34.90;25.32;;;;;;;15.22;77.03;97425.01;1751736;82;21243;-81
2021/04/30 07:59:37;;;;;;;35.88;25.17;;;;;;;15.18;76.45;97418.99;1750627;82;21143;-81
2021/04/30 08:02:04;;;;;;;40.98;29.72;;;;;;;15.17;76.80;97423.95;1752519;82;21159;-80
2021/04/30 08:04:33;;;;;;;34.80;26.68;;;;;;;15.20;77.23;97424.25;1734339;82;21182;-80
2021/04/30 08:07:00;;;;;;;40.63;27.82;;;;;;;15.23;77.14;97424.09;1727574;83;21196;-81
2021/04/30 08:09:28;;;;;;;35.78;23.40;;;;;;;15.29;76.84;97427.23;1727460;83;21570;-80
2021/04/30 08:11:55;;;;;;;30.60;21.68;;;;;;;15.38;76.75;97431.20;1727900;83;21187;-80
2021/04/30 08:14:23;;;;;;;30.80;21.50;;;;;;;15.50;76.74;97436.76;1696299;84;21194;-80
2021/04/30 08:16:50;;;;;;;27.52;17.35;;;;;;;15.57;76.45;97424.75;1777498;81;21127;-82
2021/04/30 08:19:18;;;;;;;19.45;13.25;;;;;;;15.68;76.24;97425.45;1777536;81;21175;-83
2021/04/30 08:21:45;;;;;;;15.93;11.53;;;;;;;15.79;76.12;97423.48;1787698;79;21107;-82
2021/04/30 08:24:13;;;;;;;15.05;10.08;;;;;;;15.88;75.82;97419.39;1799747;79;21128;-82
2021/04/30 08:26:40;;;;;;;15.30;10.45;;;;;;;15.93;75.29;97417.30;1783400;79;21103;-82
2021/04/30 08:29:08;;;;;;;11.85;8.95;;;;;;;15.91;74.68;97429.41;1723693;82;21187;-82
2021/04/30 08:31:35;;;;;;;14.87;10.13;;;;;;;15.99;74.87;97427.66;1721346;83;21152;-82
2021/04/30 08:34:03;;;;;;;11.33;8.28;;;;;;;16.04;74.05;97426.03;1748058;82;21165;-81
2021/04/30 08:36:30;;;;;;;12.88;8.03;;;;;;;16.13;74.20;97433.95;1722180;83;21137;-81
2021/04/30 08:38:58;;;;;;;11.03;8.13;;;;;;;16.24;73.86;97428.83;1741176;82;21469;-82
2021/04/30 08:41:27;;;;;;;12.40;9.13;;;;;;;16.31;73.16;97419.45;1705173;84;21293;-82
2021/04/30 08:43:54;;;;;;;10.13;8.33;;;;;;;16.38;73.01;97426.63;1713113;84;21175;-82
2021/04/30 08:46:22;;;;;;;12.40;8.35;;;;;;;16.40;73.01;97424.70;1713535;84;21494;-82
2021/04/30 08:48:50;;;;;;;11.00;8.45;;;;;;;16.45;72.67;97424.42;1713039;83;21125;-82
2021/04/30 08:51:17;;;;;;;10.78;7.90;;;;;;;16.41;72.53;97409.52;1752581;80;21473;-82
2021/04/30 08:53:45;;;;;;;13.05;7.55;;;;;;;16.34;72.28;97401.89;1763623;79;21457;-82
2021/04/30 08:56:17;;;;;;;12.05;7.97;;;;;;;16.27;72.12;97399.70;1757084;82;21135;-83
2021/04/30 08:58:46;;;;;;;11.57;7.83;;;;;;;16.16;72.45;97410.59;1757253;81;21158;-80
2021/04/30 09:01:13;;;;;;;10.75;8.18;;;;;;;16.16;72.85;97407.92;1757374;82;21482;-86
2021/04/30 09:03:41;;;;;;;12.47;9.43;;;;;;;16.20;73.08;97410.76;1770640;79;21111;-78
2021/04/30 09:06:09;;;;;;;12.35;8.88;;;;;;;16.32;72.68;97407.80;1812359;79;21288;-78
2021/04/30 09:08:49;;;;;;;13.68;9.50;;;;;;;16.55;72.56;97408.64;1740970;82;21171;-81
2021/04/30 09:11:35;;;;;;;13.62;8.90;;;;;;;16.80;72.04;97412.42;1724173;82;21103;-78
2021/04/30 09:14:32;;;;;;;13.05;8.40;;;;;;;17.05;71.37;97407.70;1787686;79;21163;-78
2021/04/30 09:17:08;;;;;;;11.57;7.92;;;;;;;17.17;70.17;97406.52;1793585;79;21238;-78
2021/04/30 09:19:48;;;;;;;10.50;7.30;;;;;;;17.22;69.87;97417.30;1709393;82;21120;-77
2021/04/30 09:22:24;;;;;;;10.05;7.50;;;;;;;17.23;70.10;97411.48;1789628;79;21289;-80
2021/04/30 09:24:55;;;;;;;10.60;8.20;;;;;;;17.31;70.57;97421.69;1790793;79;21257;-77
2021/04/30 09:27:40;;;;;;;16.48;10.85;;;;;;;17.33;69.46;97416.60;1727806;82;21135;-80
2021/04/30 09:30:31;;;;;;;13.98;11.20;;;;;;;17.29;69.45;97421.78;1779006;79;21565;-81
2021/04/30 09:33:18;;;;;;;15.58;11.55;;;;;;;17.24;69.37;97421.23;1757166;82;21151;-82
2021/04/30 09:35:50;;;;;;;16.32;12.33;;;;;;;17.12;69.29;97426.44;1762904;79;21175;-85
2021/04/30 09:38:34;;;;;;;15.25;10.08;;;;;;;17.07;69.58;97422.34;1710336;82;21601;-87
2021/04/30 09:41:07;;;;;;;13.65;9.88;;;;;;;17.05;69.38;97424.23;1794557;79;22231;-87
2021/04/30 09:43:51;;;;;;;13.35;9.35;;;;;;;16.94;70.02;97426.27;1789179;79;21135;-83
2021/04/30 09:46:36;;;;;;;13.28;9.05;;;;;;;16.83;69.70;97421.59;1787470;79;21103;-81
2021/04/30 09:49:13;;;;;;;11.97;7.10;;;;;;;16.72;69.75;97423.15;1790256;79;21099;-80
2021/04/30 09:51:44;;;;;;;12.93;8.58;;;;;;;16.55;69.91;97412.66;1812141;79;21305;-81
2021/04/30 09:54:27;;;;;;;10.58;7.90;;;;;;;16.45;70.55;97411.89;1739811;82;21144;-84
2021/04/30 09:57:26;;;;;;;13.83;7.45;;;;;;;16.45;70.67;97415.06;1729773;82;21167;-85
2021/04/30 09:59:59;;;;;;;7.12;6.10;;;;;;;16.44;71.01;97416.87;1786796;80;21435;-85
2021/04/30 10:02:30;;;;;;;9.88;6.58;;;;;;;16.58;71.15;97409.80;1776908;80;21102;-81
2021/04/30 10:05:11;;;;;;;11.40;6.53;;;;;;;16.82;71.48;97407.34;1773201;80;21138;-86
2021/04/30 10:07:42;;;;;;;9.63;6.42;;;;;;;17.07;71.32;97411.13;1765620;80;21127;-85
2021/04/30 10:10:17;;;;;;;7.78;6.03;;;;;;;17.25;71.20;97414.44;1770575;80;21553;-79
2021/04/30 10:12:50;;;;;;;10.63;6.40;;;;;;;17.58;71.60;97414.08;1755670;81;21190;-84
2021/04/30 10:15:20;;;;;;;11.80;6.35;;;;;;;17.89;71.09;97410.66;1754538;81;21563;-86
2021/04/30 10:17:54;;;;;;;8.25;6.45;;;;;;;18.09;69.37;97407.95;1766685;80;21166;-85
2021/04/30 10:20:22;;;;;;;8.00;5.83;;;;;;;18.33;69.76;97411.22;1762005;79;21166;-85
2021/04/30 10:22:51;;;;;;;10.75;7.25;;;;;;;18.60;68.02;97407.52;1755130;82;21186;-83
2021/04/30 10:25:20;;;;;;;8.08;6.37;;;;;;;18.74;67.97;97403.34;1755641;81;21166;-84
2021/04/30 10:27:53;;;;;;;8.90;5.55;;;;;;;18.94;65.17;97401.03;1755568;81;21162;-84
2021/04/30 10:30:38;;;;;;;9.80;5.10;;;;;;;18.98;66.07;97402.52;1756756;82;21644;-84
2021/04/30 10:33:27;;;;;;;6.72;5.75;;;;;;;18.92;63.84;97396.27;1756866;81;21265;-84
2021/04/30 10:36:20;;;;;;;7.12;5.65;;;;;;;19.06;65.01;97381.84;1757222;82;21146;-85
2021/04/30 10:38:53;;;;;;;7.92;6.22;;;;;;;19.25;66.08;97392.56;1757205;82;21118;-74
2021/04/30 10:41:38;;;;;;;;;;;;;;;20.06;65.32;97389.19;1759739;82;21130;-74
2021/04/30 10:44:22;;;;;;;9.90;6.03;;;;;;;21.08;60.55;97386.92;1757610;82;20166;-73
2021/04/30 10:47:11;;;;;;;8.70;6.35;;;;;;;21.50;58.18;97376.71;1729095;82;21130;-74
2021/04/30 10:49:43;;;;;;;7.40;5.97;;;;;;;22.05;58.32;97367.23;1756996;81;21510;-74
2021/04/30 10:52:21;;;;;;;7.15;5.62;;;;;;;22.35;55.98;97358.30;1753259;81;21158;-74
2021/04/30 10:55:16;;;;;;;7.58;5.78;;;;;;;21.86;55.38;97367.47;1749146;82;21194;-74
2021/04/30 10:58:02;;;;;;;7.50;5.62;;;;;;;21.33;56.44;97362.45;1749200;82;21135;-73
2021/04/30 11:00:41;;;;;;;8.18;5.60;;;;;;;20.98;57.90;97360.38;1749223;82;21127;-73
2021/04/30 11:03:21;;;;;;;7.70;4.92;;;;;;;20.70;58.64;97366.17;1749264;82;21143;-73
2021/04/30 11:06:02;;;;;;;8.50;5.00;;;;;;;21.20;58.37;97363.48;1749484;82;21127;-74
2021/04/30 11:08:54;;;;;;;8.58;5.42;;;;;;;22.45;57.48;97351.56;1749113;82;21134;-74
2021/04/30 11:11:37;;;;;;;6.70;4.95;;;;;;;22.85;52.45;97353.92;1745606;82;21146;-73
2021/04/30 11:14:29;;;;;;;5.70;5.08;;;;;;;23.73;53.12;97344.14;1749357;82;21135;-74
2021/04/30 11:16:59;;;;;;;9.38;5.75;;;;;;;23.81;50.39;97344.27;1749322;82;21468;-74
2021/04/30 11:19:31;;;;;;;5.05;4.42;;;;;;;24.37;50.72;97345.75;1749553;82;21139;-74
2021/04/30 11:22:14;;;;;;;8.13;5.08;;;;;;;24.93;45.78;97348.98;1749349;82;21505;-74
2021/04/30 11:24:51;;;;;;;6.85;4.78;;;;;;;25.44;47.42;97337.11;1749501;82;21127;-74
2021/04/30 11:27:24;;;;;;;5.83;4.65;;;;;;;26.31;46.38;97323.81;1749373;81;21175;-74
2021/04/30 11:29:52;;;;;;;6.80;4.60;;;;;;;26.52;43.96;97328.84;1749270;82;22187;-74
2021/04/30 11:32:26;;;;;;;7.10;4.20;;;;;;;27.12;43.73;97328.35;1749368;82;21528;-74
2021/04/30 11:34:58;;;;;;;5.37;4.40;;;;;;;27.31;41.27;97323.63;1749798;82;21115;-74
2021/04/30 11:37:28;;;;;;;6.15;4.97;;;;;;;27.73;41.51;97308.16;1749407;82;21131;-74
2021/04/30 11:40:00;;;;;;;7.50;5.05;;;;;;;28.28;41.25;97315.22;1748087;82;21508;-74